Time;durP1;ratioP1;P1;durP2;ratioP2;P2;SDS_P1;SDS_P2;PMS_P1;PMS_P2;Temp;Humidity;BMP_temperature;BMP_pressure;BME280_temperature;BME280_humidity;BME280_pressure;Samples;Min_cycle;Max_cycle;Signal;HPM_P1;HPM_P2
2023/05/04 00:03:10;;;;;;;6.30;3.70;;;;;;;7.77;55.90;100558.72;10523419;28;20062;-64
2023/05/04 00:08:12;;;;;;;9.30;4.20;;;;;;;7.71;55.94;100562.38;10522791;28;20880;-64
2023/05/04 00:13:13;;;;;;;6.82;3.63;;;;;;;7.58;56.28;100555.09;10522738;28;20062;-63
2023/05/04 00:18:15;;;;;;;8.07;4.20;;;;;;;7.52;56.29;100556.19;10522743;28;20500;-64
2023/05/04 00:23:17;;;;;;;9.63;4.60;;;;;;;7.41;56.48;100563.53;10522305;28;20102;-64
2023/05/04 00:28:19;;;;;;;8.25;4.35;;;;;;;7.29;56.27;100556.19;10522215;28;20163;-63
2023/05/04 00:33:21;;;;;;;8.65;4.28;;;;;;;7.10;57.10;100557.78;10504270;28;20098;-63
2023/05/04 00:38:23;;;;;;;10.38;4.38;;;;;;;7.02;57.15;100550.22;10512539;28;20110;-64
2023/05/04 00:43:25;;;;;;;8.00;4.18;;;;;;;7.02;57.37;100546.78;10479937;28;20068;-63
2023/05/04 00:48:27;;;;;;;9.70;4.63;;;;;;;6.89;57.55;100543.78;10480545;28;20140;-63
2023/05/04 00:53:29;;;;;;;6.10;3.92;;;;;;;6.88;57.82;100541.19;10460749;28;20070;-63
2023/05/04 00:58:32;;;;;;;7.78;4.53;;;;;;;6.86;57.77;100532.59;10477383;28;20139;-63
2023/05/04 01:03:34;;;;;;;6.68;4.47;;;;;;;6.74;57.63;100533.88;10478615;28;20086;-63
2023/05/04 01:08:46;;;;;;;7.80;4.32;;;;;;;6.54;58.46;100535.47;10479711;28;20045;-63
2023/05/04 01:13:50;;;;;;;9.90;4.18;;;;;;;6.68;58.26;100533.25;10477401;28;20126;-64
2023/05/04 01:18:51;;;;;;;12.05;4.63;;;;;;;6.61;58.39;100532.63;10477453;28;20076;-63
2023/05/04 01:23:55;;;;;;;8.52;4.50;;;;;;;6.47;58.78;100527.03;10478079;28;20400;-62
2023/05/04 01:29:32;;;;;;;9.13;4.47;;;;;;;6.46;59.08;100530.53;10478091;28;20048;-62
2023/05/04 01:34:36;;;;;;;7.93;4.50;;;;;;;6.48;58.55;100526.13;10454398;28;20048;-63
2023/05/04 01:39:38;;;;;;;11.23;4.47;;;;;;;6.34;58.87;100523.16;10475957;28;20500;-62
2023/05/04 01:44:40;;;;;;;10.63;4.65;;;;;;;6.27;58.85;100522.50;10477483;28;20052;-62
2023/05/04 01:49:42;;;;;;;7.20;4.55;;;;;;;6.27;59.08;100532.88;10477174;28;20045;-62
2023/05/04 01:54:43;;;;;;;6.40;4.28;;;;;;;6.24;59.03;100527.78;10475740;28;20139;-62
2023/05/04 01:59:45;;;;;;;6.18;4.00;;;;;;;6.17;59.04;100525.41;10475163;28;20528;-62
2023/05/04 02:04:47;;;;;;;7.55;4.20;;;;;;;6.22;59.10;100523.53;10475884;28;20058;-62
2023/05/04 02:09:49;;;;;;;7.20;4.30;;;;;;;6.14;58.98;100525.53;10475833;28;20076;-62
2023/05/04 02:14:51;;;;;;;7.68;4.43;;;;;;;5.89;58.92;100527.19;10474867;28;20051;-62
2023/05/04 02:19:53;;;;;;;6.63;3.85;;;;;;;5.88;59.24;100526.31;10474641;28;20171;-62
2023/05/04 02:24:55;;;;;;;6.38;4.35;;;;;;;5.95;58.98;100520.06;10476686;28;20070;-62
2023/05/04 02:29:57;;;;;;;9.98;4.95;;;;;;;5.87;59.33;100519.44;10475851;28;20071;-62
2023/05/04 02:34:59;;;;;;;7.63;4.30;;;;;;;5.78;59.45;100509.34;10491452;28;20076;-62
2023/05/04 02:40:03;;;;;;;6.93;4.35;;;;;;;5.46;59.19;100515.53;10432852;28;20045;-62
2023/05/04 02:45:06;;;;;;;7.15;4.15;;;;;;;5.54;59.74;100517.88;10416213;28;20051;-62
2023/05/04 02:50:08;;;;;;;10.98;4.35;;;;;;;5.64;59.41;100518.44;10434046;28;20196;-63
2023/05/04 02:55:10;;;;;;;8.57;4.15;;;;;;;5.72;59.28;100508.66;10428920;28;20106;-62
2023/05/04 03:00:12;;;;;;;9.93;5.70;;;;;;;5.43;59.35;100507.00;10433875;28;20048;-63
2023/05/04 03:05:14;;;;;;;7.85;5.20;;;;;;;5.24;60.08;100509.25;10433784;28;20377;-62
2023/05/04 03:10:16;;;;;;;8.65;4.55;;;;;;;5.30;60.29;100500.44;10432584;28;20049;-62
2023/05/04 03:15:18;;;;;;;11.98;4.57;;;;;;;5.51;59.92;100500.66;10432195;28;20497;-62
2023/05/04 03:20:20;;;;;;;9.20;4.70;;;;;;;5.44;60.19;100506.06;10433734;28;20049;-62
2023/05/04 03:25:21;;;;;;;7.45;4.50;;;;;;;5.52;60.01;100506.69;10440115;28;20041;-62
2023/05/04 03:30:24;;;;;;;10.20;4.97;;;;;;;5.64;59.76;100513.25;10440315;28;20080;-62
2023/05/04 03:35:28;;;;;;;9.65;4.50;;;;;;;5.69;59.61;100501.84;10447620;28;20152;-62
2023/05/04 03:40:31;;;;;;;8.55;4.00;;;;;;;5.69;59.66;100506.19;10505974;28;20135;-62
2023/05/04 03:45:35;;;;;;;9.32;4.32;;;;;;;5.74;59.54;100510.34;10489317;28;20051;-62
2023/05/04 03:50:36;;;;;;;10.05;4.78;;;;;;;5.85;59.42;100512.59;10523829;28;20052;-62
2023/05/04 03:55:38;;;;;;;9.30;4.90;;;;;;;5.86;59.31;100511.72;10523238;28;20055;-62
2023/05/04 04:00:41;;;;;;;9.60;4.57;;;;;;;5.80;59.40;100507.53;10539367;28;20044;-62
2023/05/04 04:05:48;;;;;;;7.43;5.45;;;;;;;5.34;59.53;100502.06;10505154;28;20043;-62
2023/05/04 04:10:49;;;;;;;8.20;4.38;;;;;;;5.34;60.09;100510.69;10522902;28;20920;-62
2023/05/04 04:15:52;;;;;;;8.82;4.75;;;;;;;5.52;59.77;100502.38;10522096;28;20052;-62
2023/05/04 04:20:53;;;;;;;5.72;4.45;;;;;;;5.69;59.73;100501.84;10504328;28;20109;-62
2023/05/04 04:25:55;;;;;;;6.85;4.30;;;;;;;5.69;59.68;100501.00;10522925;28;20046;-63
2023/05/04 04:31:02;;;;;;;8.88;4.95;;;;;;;5.68;59.58;100494.94;10504468;28;20036;-63
2023/05/04 04:36:04;;;;;;;10.75;5.20;;;;;;;5.91;59.28;100491.63;10520951;28;20146;-62
2023/05/04 04:41:05;;;;;;;16.27;5.03;;;;;;;5.97;58.89;100487.09;10521980;28;20050;-63
2023/05/04 04:46:08;;;;;;;19.92;5.30;;;;;;;5.88;58.92;100489.97;10521721;28;20293;-63
2023/05/04 04:51:11;;;;;;;28.67;5.35;;;;;;;6.04;59.32;100493.78;10521666;28;20063;-63
2023/05/04 04:56:12;;;;;;;342.20;18.77;;;;;;;6.37;59.06;100494.47;10521096;28;20461;-63
2023/05/04 05:01:16;;;;;;;139.90;10.13;;;;;;;6.69;58.70;100493.38;10521084;28;20152;-63
2023/05/04 05:06:19;;;;;;;181.38;11.77;;;;;;;7.20;57.98;100491.50;10521427;28;20080;-62
2023/05/04 05:11:21;;;;;;;196.05;14.07;;;;;;;7.47;57.36;100494.81;10520494;28;20048;-62
2023/05/04 05:16:23;;;;;;;130.60;9.38;;;;;;;7.74;57.00;100494.59;10520162;28;20072;-62
2023/05/04 05:21:25;;;;;;;85.38;9.27;;;;;;;7.78;57.11;100492.72;10502004;28;20055;-63
2023/05/04 05:26:27;;;;;;;73.25;8.85;;;;;;;7.87;56.89;100490.63;10501885;28;20043;-63
2023/05/04 05:31:29;;;;;;;56.42;7.22;;;;;;;8.04;56.69;100493.38;10519645;28;20130;-63
2023/05/04 05:36:31;;;;;;;49.00;6.80;;;;;;;8.27;56.41;100499.44;10501298;28;20411;-63
2023/05/04 05:41:33;;;;;;;48.65;6.75;;;;;;;8.38;56.37;100503.31;10519671;28;20039;-63
2023/05/04 05:46:35;;;;;;;46.00;6.57;;;;;;;8.65;56.08;100506.47;10519121;28;20081;-63
2023/05/04 05:51:37;;;;;;;36.03;5.88;;;;;;;9.07;55.29;100498.56;10518922;28;20188;-63
2023/05/04 05:56:38;;;;;;;21.08;5.20;;;;;;;9.46;54.64;100497.59;10518762;28;20052;-63
2023/05/04 06:01:40;;;;;;;30.67;5.88;;;;;;;9.76;53.74;100497.13;10518473;28;20068;-62
2023/05/04 06:06:42;;;;;;;15.57;5.03;;;;;;;9.97;52.55;100494.31;10518852;28;20086;-62
2023/05/04 06:11:46;;;;;;;16.95;4.60;;;;;;;9.94;51.42;100497.09;10518072;28;20769;-62
2023/05/04 06:16:48;;;;;;;13.27;4.60;;;;;;;9.88;51.79;100493.91;10517811;28;20058;-62
2023/05/04 06:21:50;;;;;;;18.55;4.72;;;;;;;9.82;51.97;100487.22;10533581;28;20385;-62
2023/05/04 06:26:52;;;;;;;15.10;4.65;;;;;;;9.85;51.84;100487.06;10499668;28;20075;-63
2023/05/04 06:31:55;;;;;;;8.98;4.57;;;;;;;10.03;51.58;100478.38;10499645;28;20927;-63
2023/05/04 06:36:56;;;;;;;14.90;4.43;;;;;;;10.26;51.38;100474.59;10532700;28;20139;-62
2023/05/04 06:41:58;;;;;;;8.20;4.40;;;;;;;10.43;50.59;100474.59;10517338;28;20047;-62
2023/05/04 06:47:01;;;;;;;8.30;4.18;;;;;;;10.43;50.76;100469.38;10514908;28;20056;-62
2023/05/04 06:52:03;;;;;;;10.15;5.00;;;;;;;10.51;51.31;100464.59;10517189;28;20693;-63
2023/05/04 06:57:05;;;;;;;11.82;4.70;;;;;;;10.49;50.36;100461.22;10498402;28;20044;-63
2023/05/04 07:02:07;;;;;;;11.98;4.32;;;;;;;10.49;50.57;100463.84;10498649;28;20143;-62
2023/05/04 07:07:09;;;;;;;9.80;4.50;;;;;;;10.80;49.77;100460.47;10516858;28;20121;-63
2023/05/04 07:12:10;;;;;;;13.88;4.95;;;;;;;11.02;48.89;100458.41;10499218;28;20040;-63
2023/05/04 07:17:13;;;;;;;11.50;4.63;;;;;;;11.28;48.67;100455.28;10498480;28;20051;-63
2023/05/04 07:22:15;;;;;;;8.45;4.38;;;;;;;11.61;48.54;100445.56;10498458;28;20070;-63
2023/05/04 07:27:16;;;;;;;9.10;4.60;;;;;;;11.96;47.19;100444.44;10516417;28;20055;-63
2023/05/04 07:32:19;;;;;;;8.88;4.35;;;;;;;12.36;46.64;100442.97;10516820;28;20641;-63
2023/05/04 07:37:21;;;;;;;8.02;4.43;;;;;;;13.53;45.50;100436.63;10516615;28;20052;-63
2023/05/04 07:42:22;;;;;;;8.82;4.55;;;;;;;14.66;43.17;100433.44;10515800;28;20125;-63
2023/05/04 07:47:24;;;;;;;10.07;4.28;;;;;;;15.26;41.63;100414.22;10498302;28;20063;-63
2023/05/04 07:52:26;;;;;;;14.13;4.28;;;;;;;16.01;40.35;100415.72;10516382;28;20041;-63
2023/05/04 07:57:28;;;;;;;8.30;4.13;;;;;;;16.69;39.77;100415.78;10515496;28;20142;-63
2023/05/04 08:02:30;;;;;;;8.95;3.97;;;;;;;17.40;38.48;100404.03;10515947;28;20036;-63
2023/05/04 08:07:32;;;;;;;7.55;3.97;;;;;;;17.30;38.86;100393.31;10515480;28;20476;-63
2023/05/04 08:12:33;;;;;;;10.77;3.92;;;;;;;17.69;37.33;100376.88;10522826;28;20052;-63
2023/05/04 08:17:38;;;;;;;11.32;3.55;;;;;;;18.10;37.77;100375.25;10522642;28;20043;-63
2023/05/04 08:22:40;;;;;;;10.88;3.78;;;;;;;18.63;36.68;100368.91;10504315;28;20059;-63
2023/05/04 08:27:41;;;;;;;9.65;3.60;;;;;;;18.90;36.61;100360.38;10504437;28;20055;-63
2023/05/04 08:32:44;;;;;;;9.55;3.85;;;;;;;18.57;35.08;100357.06;10504257;28;20427;-63
2023/05/04 08:37:46;;;;;;;8.70;3.70;;;;;;;18.74;36.12;100360.03;10521621;28;20055;-63
2023/05/04 08:42:50;;;;;;;6.60;3.63;;;;;;;19.22;34.65;100353.09;10504082;28;20040;-63
2023/05/04 08:47:52;;;;;;;7.60;3.47;;;;;;;19.07;34.39;100347.38;10503498;28;20093;-63
2023/05/04 08:52:55;;;;;;;10.13;3.60;;;;;;;19.36;34.38;100340.31;10521381;28;20050;-64
2023/05/04 08:58:00;;;;;;;6.88;3.47;;;;;;;19.41;34.00;100342.53;10503176;28;20052;-64
2023/05/04 09:03:03;;;;;;;9.85;3.40;;;;;;;20.07;33.68;100338.25;10520839;28;20138;-63
2023/05/04 09:08:05;;;;;;;6.60;3.38;;;;;;;20.36;32.76;100330.22;10520555;28;20049;-64
2023/05/04 09:13:07;;;;;;;11.23;3.63;;;;;;;20.24;32.60;100325.06;10520586;28;20048;-64
2023/05/04 09:18:09;;;;;;;10.73;3.30;;;;;;;20.76;32.32;100317.50;10485400;28;20551;-64
2023/05/04 09:23:13;;;;;;;6.72;3.13;;;;;;;21.08;32.56;100317.88;10535541;28;20052;-64
2023/05/04 09:28:15;;;;;;;8.13;3.58;;;;;;;21.08;32.85;100312.56;10520061;28;20446;-64
2023/05/04 09:33:26;;;;;;;9.27;3.42;;;;;;;21.37;31.14;100304.44;10519936;28;20044;-64
2023/05/04 09:38:30;;;;;;;10.02;3.45;;;;;;;21.86;31.12;100298.53;10519434;28;20052;-64
2023/05/04 09:43:40;;;;;;;7.70;3.45;;;;;;;21.82;31.15;100291.84;10519655;28;20048;-64
2023/05/04 09:48:52;;;;;;;7.93;3.63;;;;;;;21.27;29.73;100291.16;10519352;28;20036;-64
2023/05/04 09:54:01;;;;;;;7.60;3.20;;;;;;;21.31;30.82;100289.03;10519062;28;20043;-64
2023/05/04 09:59:04;;;;;;;9.73;3.50;;;;;;;21.59;30.60;100285.34;10518931;28;20080;-64
2023/05/04 10:04:06;;;;;;;7.90;3.30;;;;;;;21.62;29.97;100274.41;10518152;28;20044;-64
2023/05/04 10:09:10;;;;;;;6.05;2.40;;;;;;;21.90;30.35;100262.63;10518261;28;20583;-64
2023/05/04 10:14:12;;;;;;;4.50;2.22;;;;;;;22.26;27.84;100258.03;10518600;28;20175;-64
2023/05/04 10:19:39;;;;;;;5.18;2.20;;;;;;;21.64;25.55;100249.28;10518279;28;20356;-65
2023/05/04 10:25:23;;;;;;;7.10;1.80;;;;;;;21.84;25.72;100241.94;10517838;28;20131;-65
2023/05/04 10:30:25;;;;;;;4.72;2.10;;;;;;;22.24;26.61;100234.22;10387498;28;20044;-65
2023/05/04 10:35:27;;;;;;;8.75;1.98;;;;;;;21.94;24.84;100218.72;10473158;28;20160;-65
2023/05/04 10:40:37;;;;;;;4.35;2.22;;;;;;;21.69;25.37;100214.22;10517392;28;20046;-65
2023/05/04 10:45:40;;;;;;;4.63;2.10;;;;;;;21.28;26.26;100201.53;10517435;28;20948;-65
2023/05/04 10:50:48;;;;;;;4.35;2.10;;;;;;;21.48;26.04;100203.06;10517110;28;20130;-64
2023/05/04 10:55:50;;;;;;;6.22;2.28;;;;;;;21.52;27.22;100183.97;10516979;28;20142;-64
2023/05/04 11:00:52;;;;;;;3.95;2.25;;;;;;;21.52;26.98;100170.66;10517102;28;20044;-64
2023/05/04 11:05:54;;;;;;;4.07;2.30;;;;;;;21.63;28.37;100154.44;10516835;28;20078;-64
2023/05/04 11:11:03;;;;;;;5.85;2.50;;;;;;;21.71;27.89;100148.34;10516961;28;20048;-64
2023/05/04 11:16:05;;;;;;;;;;;;;;;21.43;27.43;100145.00;10517321;28;20052;-64
2023/05/04 11:21:08;;;;;;;7.53;2.80;;;;;;;21.68;27.94;100143.34;10516503;28;20360;-64
2023/05/04 11:26:11;;;;;;;9.23;2.92;;;;;;;21.74;26.78;100140.03;10516683;28;20167;-64
2023/05/04 11:31:14;;;;;;;5.55;2.38;;;;;;;21.82;28.41;100142.75;10516563;28;20051;-64
2023/05/04 11:36:16;;;;;;;6.68;2.80;;;;;;;21.74;26.43;100132.06;10498047;28;20060;-64
2023/05/04 11:41:18;;;;;;;6.18;2.90;;;;;;;21.72;27.14;100144.69;10516012;28;20423;-64
2023/05/04 11:46:20;;;;;;;4.70;2.67;;;;;;;21.35;29.48;100128.97;10505928;28;20039;-64
2023/05/04 11:51:23;;;;;;;5.45;2.85;;;;;;;21.37;27.85;100115.50;10523821;28;20048;-64
2023/05/04 11:56:25;;;;;;;4.85;2.70;;;;;;;21.24;29.60;100110.56;10523526;28;20048;-64
2023/05/04 12:01:33;;;;;;;7.35;2.70;;;;;;;21.40;29.28;100108.03;10523682;28;20044;-64
2023/05/04 12:06:37;;;;;;;6.72;2.60;;;;;;;21.42;30.18;100100.75;10523237;28;20140;-64
2023/05/04 12:11:39;;;;;;;8.48;2.70;;;;;;;21.58;29.10;100095.50;10504652;28;20089;-64
2023/05/04 12:16:52;;;;;;;7.05;3.10;;;;;;;21.69;29.80;100089.94;10523342;28;20074;-64
2023/05/04 12:21:57;;;;;;;5.25;2.90;;;;;;;21.53;30.14;100089.00;10488133;28;20150;-64
2023/05/04 12:26:58;;;;;;;7.47;2.90;;;;;;;21.75;29.25;100078.66;10522388;28;20048;-64
2023/05/04 12:32:00;;;;;;;5.15;2.60;;;;;;;21.95;30.37;100087.22;10522401;28;20468;-64
2023/05/04 12:37:02;;;;;;;4.90;2.80;;;;;;;21.82;31.08;100065.53;10522054;28;20462;-64
2023/05/04 12:42:04;;;;;;;6.97;3.00;;;;;;;21.78;30.07;100062.34;10521931;28;20122;-64
2023/05/04 12:47:06;;;;;;;8.30;3.05;;;;;;;21.77;29.66;100044.72;10521874;28;20130;-64
2023/05/04 12:52:08;;;;;;;6.45;2.90;;;;;;;21.67;30.84;100053.81;10521564;28;20223;-64
2023/05/04 12:57:11;;;;;;;4.63;2.78;;;;;;;21.69;30.79;100049.16;10502373;28;20089;-64
2023/05/04 13:02:13;;;;;;;5.68;3.10;;;;;;;21.75;30.41;100044.03;10521229;28;20519;-64
2023/05/04 13:07:14;;;;;;;7.88;3.10;;;;;;;21.73;30.47;100039.84;10520897;28;20040;-64
2023/05/04 13:12:16;;;;;;;5.63;2.58;;;;;;;21.99;29.62;100032.63;10520736;28;20419;-64
2023/05/04 13:17:19;;;;;;;5.95;2.92;;;;;;;22.20;29.10;100014.41;10520475;28;20060;-64
2023/05/04 13:22:21;;;;;;;7.60;2.80;;;;;;;22.38;30.42;100009.78;10520480;28;20075;-64
2023/05/04 13:27:23;;;;;;;4.97;2.40;;;;;;;22.54;29.15;99993.78;10520442;28;20046;-64
2023/05/04 13:32:26;;;;;;;5.38;2.50;;;;;;;22.67;29.92;99988.81;10502182;28;20052;-64
2023/05/04 13:37:28;;;;;;;5.38;2.72;;;;;;;22.58;28.54;99989.78;10520315;28;20060;-63
2023/05/04 13:42:30;;;;;;;5.32;2.58;;;;;;;22.67;29.02;99991.47;10520034;28;20083;-63
2023/05/04 13:47:33;;;;;;;5.47;2.70;;;;;;;22.62;30.92;99980.44;10519450;28;20047;-62
2023/05/04 13:52:35;;;;;;;5.25;2.80;;;;;;;22.81;28.03;99973.97;10493257;28;20055;-62
2023/05/04 13:57:37;;;;;;;5.57;2.50;;;;;;;22.78;29.26;99960.97;10500451;28;20150;-62
2023/05/04 14:02:39;;;;;;;6.60;2.78;;;;;;;22.59;29.27;99956.81;10518997;28;20097;-65
2023/05/04 14:07:41;;;;;;;5.53;2.60;;;;;;;22.75;30.61;99944.47;10517707;28;20043;-62
2023/05/04 14:12:46;;;;;;;4.20;2.30;;;;;;;22.76;29.47;99933.63;10518384;28;20653;-63
2023/05/04 14:17:49;;;;;;;5.90;2.58;;;;;;;22.69;30.42;99928.13;10533662;28;20573;-62
2023/05/04 14:22:51;;;;;;;3.80;2.38;;;;;;;22.82;30.40;99924.97;10518263;28;20047;-62
2023/05/04 14:27:52;;;;;;;4.15;2.33;;;;;;;22.86;28.44;99920.13;10517862;28;20050;-62
2023/05/04 14:32:56;;;;;;;14.02;2.60;;;;;;;23.02;28.57;99912.09;10499620;28;20166;-62
2023/05/04 14:37:59;;;;;;;4.35;2.38;;;;;;;23.21;28.57;99911.66;10483327;28;20048;-62
2023/05/04 14:43:01;;;;;;;6.35;2.50;;;;;;;23.25;29.52;99907.66;10517646;28;20143;-63
2023/05/04 14:48:03;;;;;;;8.60;2.80;;;;;;;23.25;28.24;99902.31;10517240;28;20167;-62
2023/05/04 14:53:05;;;;;;;5.82;2.20;;;;;;;23.18;29.24;99904.03;10517644;28;20044;-62
2023/05/04 14:58:08;;;;;;;7.03;2.58;;;;;;;23.17;27.69;99907.69;10498869;28;20131;-63
2023/05/04 15:03:10;;;;;;;4.90;2.65;;;;;;;23.05;27.41;99903.72;10516907;28;20521;-63
2023/05/04 15:08:12;;;;;;;6.75;2.55;;;;;;;23.04;27.67;99892.25;10481965;28;20048;-62
2023/05/04 15:13:14;;;;;;;4.28;2.50;;;;;;;23.22;26.92;99889.34;10516528;28;20048;-63
2023/05/04 15:18:20;;;;;;;5.38;2.40;;;;;;;23.43;27.52;99881.59;10519096;28;20113;-63
2023/05/04 15:23:21;;;;;;;4.43;2.20;;;;;;;23.59;27.31;99878.84;10525231;28;20431;-62
2023/05/04 15:28:24;;;;;;;9.00;2.55;;;;;;;23.83;27.25;99875.16;10506476;28;20037;-62
2023/05/04 15:33:26;;;;;;;6.80;2.58;;;;;;;23.65;26.80;99867.44;10524712;28;20131;-63
2023/05/04 15:38:28;;;;;;;5.40;2.47;;;;;;;23.32;27.67;99853.44;10524404;28;20147;-62
2023/05/04 15:43:33;;;;;;;5.57;2.55;;;;;;;23.33;27.61;99841.75;10524433;28;20051;-62
2023/05/04 15:48:35;;;;;;;5.15;2.70;;;;;;;23.10;29.27;99832.88;10524174;28;20040;-62
2023/05/04 15:53:37;;;;;;;6.57;3.03;;;;;;;23.08;28.54;99824.22;10523779;28;20127;-62
2023/05/04 15:58:39;;;;;;;5.50;2.97;;;;;;;23.04;29.98;99824.72;10523730;28;20135;-62
2023/05/04 16:03:44;;;;;;;5.95;2.78;;;;;;;22.87;30.16;99831.97;10523224;28;20087;-63
2023/05/04 16:08:46;;;;;;;5.13;2.53;;;;;;;23.03;29.67;99834.56;10523435;28;20048;-62
2023/05/04 16:13:47;;;;;;;4.32;2.60;;;;;;;23.01;29.55;99827.72;10523073;28;20272;-62
2023/05/04 16:18:49;;;;;;;6.55;2.72;;;;;;;22.97;30.80;99821.06;10523053;28;20105;-62
2023/05/04 16:23:51;;;;;;;5.00;2.75;;;;;;;22.73;31.35;99807.81;10504479;28;20071;-63
2023/05/04 16:28:53;;;;;;;5.22;2.88;;;;;;;22.58;31.51;99800.53;10521420;28;20050;-62
2023/05/04 16:33:55;;;;;;;7.20;2.90;;;;;;;22.65;31.84;99796.19;10504106;28;20079;-63
2023/05/04 16:38:57;;;;;;;5.97;2.67;;;;;;;22.54;31.76;99796.53;10522118;28;20071;-63
2023/05/04 16:43:58;;;;;;;5.63;2.70;;;;;;;22.52;32.73;99800.38;10522114;28;20131;-62
2023/05/04 16:49:00;;;;;;;5.50;2.72;;;;;;;22.25;32.17;99798.94;10522059;28;20430;-63
2023/05/04 16:54:02;;;;;;;7.93;2.90;;;;;;;22.19;32.87;99796.13;10521632;28;20040;-63
2023/05/04 16:59:04;;;;;;;5.70;2.80;;;;;;;22.11;33.13;99796.97;10521177;28;20059;-63
2023/05/04 17:04:07;;;;;;;5.45;2.70;;;;;;;22.09;33.61;99803.47;10521073;28;20094;-62
2023/05/04 17:09:09;;;;;;;7.22;2.50;;;;;;;21.79;33.59;99792.47;10520513;28;20429;-63
2023/05/04 17:14:11;;;;;;;5.32;3.00;;;;;;;21.72;34.59;99795.97;10521158;28;20365;-62
2023/05/04 17:19:13;;;;;;;5.88;2.90;;;;;;;21.78;34.25;99795.31;10502117;28;20079;-62
2023/05/04 17:24:15;;;;;;;7.68;2.80;;;;;;;21.94;34.11;99791.78;10502331;28;20519;-62
2023/05/04 17:29:16;;;;;;;5.50;2.83;;;;;;;22.02;34.26;99787.28;10502111;28;20454;-63
2023/05/04 17:34:18;;;;;;;6.38;2.70;;;;;;;22.06;34.29;99796.66;10520075;28;20075;-62
2023/05/04 17:39:20;;;;;;;6.78;2.75;;;;;;;22.05;34.19;99794.16;10501673;28;20048;-62
2023/05/04 17:44:23;;;;;;;5.00;2.70;;;;;;;21.98;34.25;99795.78;10519273;28;20074;-62
2023/05/04 17:49:25;;;;;;;5.10;2.65;;;;;;;21.84;34.42;99792.78;10501322;28;20131;-62
2023/05/04 17:54:27;;;;;;;6.22;2.53;;;;;;;21.65;34.73;99806.44;10534527;28;20623;-62
2023/05/04 17:59:30;;;;;;;6.97;2.70;;;;;;;21.33;34.81;99816.19;10519117;28;20048;-62
2023/05/04 18:04:34;;;;;;;6.50;2.53;;;;;;;21.06;35.34;99823.41;10517120;28;20125;-63
2023/05/04 18:09:35;;;;;;;4.70;2.65;;;;;;;20.79;35.72;99828.94;10534190;28;20040;-62
2023/05/04 18:14:37;;;;;;;6.60;2.70;;;;;;;20.56;36.01;99830.44;10499969;28;20046;-62
2023/05/04 18:19:39;;;;;;;8.60;2.83;;;;;;;20.33;36.21;99837.28;10518264;28;20052;-62
2023/05/04 18:24:41;;;;;;;6.00;2.53;;;;;;;20.11;36.43;99845.75;10518181;28;20048;-62
2023/05/04 18:29:43;;;;;;;4.38;2.63;;;;;;;19.95;37.42;99845.63;10517630;28;20142;-62
2023/05/04 18:34:49;;;;;;;7.93;2.97;;;;;;;19.66;37.79;99844.97;10517505;28;22423;-62
2023/05/04 18:39:51;;;;;;;5.22;2.80;;;;;;;19.37;38.77;99853.97;10517895;28;20098;-62
2023/05/04 18:44:53;;;;;;;7.13;3.10;;;;;;;19.14;39.47;99858.00;10533166;28;20135;-62
2023/05/04 18:49:55;;;;;;;6.20;3.10;;;;;;;18.96;39.36;99854.44;10517257;28;20154;-62
2023/05/04 18:54:57;;;;;;;6.32;2.72;;;;;;;18.85;39.48;99862.56;10498454;28;20348;-62
2023/05/04 18:59:59;;;;;;;5.70;2.95;;;;;;;18.74;40.10;99859.28;10516970;28;20424;-62
2023/05/04 19:05:01;;;;;;;7.03;3.20;;;;;;;18.55;41.31;99865.47;10516395;28;20097;-62
2023/05/04 19:10:03;;;;;;;7.97;2.97;;;;;;;18.42;41.62;99876.38;10516701;28;20068;-62
2023/05/04 19:15:06;;;;;;;7.90;3.17;;;;;;;18.27;42.03;99883.09;10516254;28;20676;-62
2023/05/04 19:20:09;;;;;;;5.45;3.53;;;;;;;18.06;42.38;99884.19;10516573;28;20287;-62
2023/05/04 19:25:11;;;;;;;8.43;3.67;;;;;;;17.54;43.75;99883.63;10516489;28;20086;-62
2023/05/04 19:30:27;;;;;;;8.52;3.15;;;;;;;17.52;43.48;99893.50;10500921;28;20488;-62
2023/05/04 19:35:29;;;;;;;10.65;3.33;;;;;;;17.39;43.67;99895.56;10515871;28;20066;-62
2023/05/04 19:40:32;;;;;;;7.22;3.20;;;;;;;17.27;44.19;99896.59;10516268;28;20044;-62
2023/05/04 19:45:34;;;;;;;6.60;3.30;;;;;;;17.18;44.55;99905.31;10515949;28;20123;-62
2023/05/04 19:50:36;;;;;;;9.00;3.47;;;;;;;17.06;45.65;99897.66;10497766;28;20154;-62
2023/05/04 19:55:38;;;;;;;11.15;3.85;;;;;;;16.90;46.21;99898.13;10516171;28;20050;-62
2023/05/04 20:00:40;;;;;;;8.55;3.67;;;;;;;16.70;46.85;99912.19;10515882;28;20055;-62
2023/05/04 20:05:42;;;;;;;7.70;3.88;;;;;;;16.74;46.62;99910.97;10520153;28;20055;-62
2023/05/04 20:10:44;;;;;;;6.20;3.88;;;;;;;16.66;46.59;99910.78;10504699;28;20479;-62
2023/05/04 20:15:45;;;;;;;6.65;3.78;;;;;;;16.57;47.07;99904.47;10523674;28;20191;-62
2023/05/04 20:20:47;;;;;;;5.95;3.67;;;;;;;16.42;47.62;99911.03;10523394;28;20043;-62
2023/05/04 20:25:50;;;;;;;6.63;3.92;;;;;;;16.29;47.79;99906.91;10523090;28;20134;-62
2023/05/04 20:30:52;;;;;;;6.20;3.65;;;;;;;16.16;47.94;99901.84;10522756;28;20048;-63
2023/05/04 20:35:53;;;;;;;6.07;3.50;;;;;;;16.01;48.17;99911.84;10521657;28;20058;-62
2023/05/04 20:40:55;;;;;;;9.75;4.07;;;;;;;15.85;48.68;99902.69;10521910;28;20295;-62
2023/05/04 20:45:57;;;;;;;7.05;3.90;;;;;;;15.80;49.06;99899.56;10521668;28;20058;-62
2023/05/04 20:51:00;;;;;;;6.10;4.10;;;;;;;15.84;48.80;99899.19;10521536;28;20090;-62
2023/05/04 20:56:15;;;;;;;8.10;4.10;;;;;;;15.77;49.07;99895.41;10521625;28;20051;-62
2023/05/04 21:01:17;;;;;;;6.07;4.10;;;;;;;15.65;49.26;99900.84;10521435;28;20055;-62
2023/05/04 21:06:19;;;;;;;5.88;4.07;;;;;;;15.45;49.35;99897.13;10503000;28;20083;-62
2023/05/04 21:11:21;;;;;;;7.70;4.40;;;;;;;15.27;50.14;99885.41;10536418;28;20473;-62
2023/05/04 21:16:23;;;;;;;7.65;4.75;;;;;;;15.03;50.14;99892.63;10501853;28;20142;-62
2023/05/04 21:21:25;;;;;;;6.78;4.18;;;;;;;14.61;51.18;99895.97;10520546;28;20131;-62
2023/05/04 21:26:27;;;;;;;8.32;4.20;;;;;;;14.59;51.38;99894.28;10520237;28;20054;-62
2023/05/04 21:31:29;;;;;;;5.43;4.32;;;;;;;14.52;51.59;99884.34;10520172;28;20046;-62
2023/05/04 21:36:31;;;;;;;8.02;4.47;;;;;;;14.43;52.07;99885.84;10519816;28;20063;-62
2023/05/04 21:41:33;;;;;;;10.05;4.70;;;;;;;14.42;51.78;99891.25;10519776;28;20089;-62
2023/05/04 21:46:35;;;;;;;7.85;4.25;;;;;;;14.37;51.95;99894.22;10534665;28;20419;-62
2023/05/04 21:51:40;;;;;;;6.47;4.50;;;;;;;14.23;52.25;99886.53;10501251;28;20059;-62
2023/05/04 21:56:42;;;;;;;7.55;4.20;;;;;;;14.12;52.46;99888.28;10519026;28;20052;-62
2023/05/04 22:01:44;;;;;;;7.10;4.60;;;;;;;13.92;52.65;99886.31;10518987;28;20045;-62
2023/05/04 22:06:47;;;;;;;8.38;4.80;;;;;;;13.84;53.06;99892.13;10518632;28;20473;-62
2023/05/04 22:11:50;;;;;;;6.35;4.50;;;;;;;13.84;53.27;99883.41;10518312;28;20538;-62
2023/05/04 22:16:52;;;;;;;7.13;4.63;;;;;;;13.85;53.04;99885.94;10500228;28;20345;-62
2023/05/04 22:21:54;;;;;;;10.00;4.55;;;;;;;13.81;53.18;99884.47;10517666;28;20086;-62
2023/05/04 22:26:56;;;;;;;9.63;4.75;;;;;;;13.72;53.46;99885.13;10517828;28;20131;-62
2023/05/04 22:31:57;;;;;;;11.45;4.65;;;;;;;13.74;53.46;99885.88;10517870;28;20138;-63
2023/05/04 22:37:00;;;;;;;6.38;4.97;;;;;;;13.54;53.44;99884.69;10517374;28;20059;-64
2023/05/04 22:42:02;;;;;;;7.60;4.72;;;;;;;13.52;53.57;99883.13;10517845;28;20040;-64
2023/05/04 22:47:04;;;;;;;7.20;4.57;;;;;;;13.59;53.82;99893.09;10483036;28;20152;-64
2023/05/04 22:52:06;;;;;;;8.38;5.00;;;;;;;13.63;53.60;99884.03;10498897;28;20225;-64
2023/05/04 22:57:08;;;;;;;7.28;4.97;;;;;;;13.71;53.54;99880.84;10517627;28;20044;-63
2023/05/04 23:02:11;;;;;;;8.77;4.97;;;;;;;13.70;53.67;99887.03;10516920;28;20063;-64
2023/05/04 23:07:15;;;;;;;6.63;4.68;;;;;;;13.54;53.87;99887.31;10517185;28;20048;-64
2023/05/04 23:12:17;;;;;;;9.93;4.95;;;;;;;13.59;53.74;99879.13;10516642;28;20563;-64
2023/05/04 23:17:20;;;;;;;8.88;4.90;;;;;;;13.64;53.72;99893.59;10516768;28;20556;-64
2023/05/04 23:22:22;;;;;;;9.10;4.70;;;;;;;13.70;53.52;99893.16;10516815;28;20044;-64